sensor_id;sensor_type;location;lat;lon;timestamp;P1;durP1;ratioP1;P2;durP2;ratioP2
819;SDS011;392;48.838;2.322;2023-02-17T00:00:35;9.90;;;8.93;;
819;SDS011;392;48.838;2.322;2023-02-17T00:03:04;8.73;;;7.67;;
819;SDS011;392;48.838;2.322;2023-02-17T00:05:33;8.77;;;7.50;;
819;SDS011;392;48.838;2.322;2023-02-17T00:08:00;9.37;;;8.37;;
819;SDS011;392;48.838;2.322;2023-02-17T00:10:27;9.27;;;7.90;;
819;SDS011;392;48.838;2.322;2023-02-17T00:12:55;9.30;;;8.23;;
819;SDS011;392;48.838;2.322;2023-02-17T00:15:22;8.60;;;7.73;;
819;SDS011;392;48.838;2.322;2023-02-17T00:17:49;8.77;;;7.87;;
819;SDS011;392;48.838;2.322;2023-02-17T00:20:17;9.00;;;8.10;;
819;SDS011;392;48.838;2.322;2023-02-17T00:22:45;9.40;;;8.50;;
819;SDS011;392;48.838;2.322;2023-02-17T00:25:13;9.63;;;8.53;;
819;SDS011;392;48.838;2.322;2023-02-17T00:27:40;8.67;;;7.80;;
819;SDS011;392;48.838;2.322;2023-02-17T00:30:08;9.90;;;7.97;;
819;SDS011;392;48.838;2.322;2023-02-17T00:32:36;9.57;;;8.57;;
819;SDS011;392;48.838;2.322;2023-02-17T00:35:03;8.70;;;7.90;;
819;SDS011;392;48.838;2.322;2023-02-17T00:37:33;9.00;;;8.10;;
819;SDS011;392;48.838;2.322;2023-02-17T00:40:02;8.23;;;6.97;;
819;SDS011;392;48.838;2.322;2023-02-17T00:42:32;8.00;;;7.20;;
819;SDS011;392;48.838;2.322;2023-02-17T00:44:59;9.03;;;7.90;;
819;SDS011;392;48.838;2.322;2023-02-17T00:47:26;9.37;;;7.87;;
819;SDS011;392;48.838;2.322;2023-02-17T00:49:54;8.07;;;7.03;;
819;SDS011;392;48.838;2.322;2023-02-17T00:52:21;9.63;;;7.93;;
819;SDS011;392;48.838;2.322;2023-02-17T00:54:48;8.97;;;8.07;;
819;SDS011;392;48.838;2.322;2023-02-17T00:57:17;9.57;;;8.00;;
819;SDS011;392;48.838;2.322;2023-02-17T00:59:44;9.20;;;7.60;;
819;SDS011;392;48.838;2.322;2023-02-17T01:02:12;8.40;;;7.50;;
819;SDS011;392;48.838;2.322;2023-02-17T01:04:39;9.27;;;7.57;;
819;SDS011;392;48.838;2.322;2023-02-17T01:07:06;11.30;;;7.40;;
819;SDS011;392;48.838;2.322;2023-02-17T01:09:34;8.17;;;7.37;;
819;SDS011;392;48.838;2.322;2023-02-17T01:12:02;8.30;;;7.47;;
819;SDS011;392;48.838;2.322;2023-02-17T01:14:31;8.57;;;7.07;;
819;SDS011;392;48.838;2.322;2023-02-17T01:16:59;8.30;;;7.40;;
819;SDS011;392;48.838;2.322;2023-02-17T01:19:27;7.80;;;7.10;;
819;SDS011;392;48.838;2.322;2023-02-17T01:21:54;8.13;;;7.33;;
819;SDS011;392;48.838;2.322;2023-02-17T01:24:22;8.77;;;7.70;;
819;SDS011;392;48.838;2.322;2023-02-17T01:26:49;9.93;;;7.70;;
819;SDS011;392;48.838;2.322;2023-02-17T01:29:17;8.13;;;7.33;;
819;SDS011;392;48.838;2.322;2023-02-17T01:31:46;8.83;;;7.93;;
819;SDS011;392;48.838;2.322;2023-02-17T01:34:13;9.77;;;8.77;;
819;SDS011;392;48.838;2.322;2023-02-17T01:36:40;9.73;;;8.47;;
819;SDS011;392;48.838;2.322;2023-02-17T01:39:10;9.20;;;7.80;;
819;SDS011;392;48.838;2.322;2023-02-17T01:41:39;9.37;;;7.90;;
819;SDS011;392;48.838;2.322;2023-02-17T01:44:09;10.83;;;8.80;;
819;SDS011;392;48.838;2.322;2023-02-17T01:46:46;9.83;;;8.83;;
819;SDS011;392;48.838;2.322;2023-02-17T01:49:28;10.70;;;9.33;;
819;SDS011;392;48.838;2.322;2023-02-17T01:52:04;12.07;;;10.47;;
819;SDS011;392;48.838;2.322;2023-02-17T01:54:37;10.97;;;8.93;;
819;SDS011;392;48.838;2.322;2023-02-17T01:57:09;10.30;;;8.83;;
819;SDS011;392;48.838;2.322;2023-02-17T01:59:40;12.20;;;9.40;;
819;SDS011;392;48.838;2.322;2023-02-17T02:02:09;10.87;;;8.70;;
819;SDS011;392;48.838;2.322;2023-02-17T02:04:39;9.93;;;8.80;;
819;SDS011;392;48.838;2.322;2023-02-17T02:07:12;12.10;;;9.70;;
819;SDS011;392;48.838;2.322;2023-02-17T02:09:45;10.43;;;9.43;;
819;SDS011;392;48.838;2.322;2023-02-17T02:12:17;11.03;;;8.77;;
819;SDS011;392;48.838;2.322;2023-02-17T02:14:48;12.70;;;10.00;;
819;SDS011;392;48.838;2.322;2023-02-17T02:17:22;11.90;;;9.83;;
819;SDS011;392;48.838;2.322;2023-02-17T02:20:08;10.43;;;9.30;;
819;SDS011;392;48.838;2.322;2023-02-17T02:23:27;12.23;;;9.23;;
819;SDS011;392;48.838;2.322;2023-02-17T02:29:29;12.03;;;9.60;;
819;SDS011;392;48.838;2.322;2023-02-17T02:32:54;11.63;;;9.47;;
819;SDS011;392;48.838;2.322;2023-02-17T02:35:31;13.57;;;9.90;;
819;SDS011;392;48.838;2.322;2023-02-17T02:38:05;10.70;;;9.03;;
819;SDS011;392;48.838;2.322;2023-02-17T02:40:41;11.23;;;9.10;;
819;SDS011;392;48.838;2.322;2023-02-17T02:43:12;12.70;;;9.63;;
819;SDS011;392;48.838;2.322;2023-02-17T02:45:41;11.80;;;9.90;;
819;SDS011;392;48.838;2.322;2023-02-17T02:48:10;11.17;;;9.97;;
819;SDS011;392;48.838;2.322;2023-02-17T02:50:48;9.87;;;8.87;;
819;SDS011;392;48.838;2.322;2023-02-17T02:56:31;11.70;;;10.50;;
819;SDS011;392;48.838;2.322;2023-02-17T02:59:14;11.20;;;9.47;;
819;SDS011;392;48.838;2.322;2023-02-17T03:01:56;11.43;;;8.97;;
819;SDS011;392;48.838;2.322;2023-02-17T03:04:35;10.43;;;9.37;;
819;SDS011;392;48.838;2.322;2023-02-17T03:07:06;10.83;;;9.00;;
819;SDS011;392;48.838;2.322;2023-02-17T03:09:46;11.20;;;9.50;;
819;SDS011;392;48.838;2.322;2023-02-17T03:12:14;11.67;;;9.27;;
819;SDS011;392;48.838;2.322;2023-02-17T03:14:41;11.37;;;9.17;;
819;SDS011;392;48.838;2.322;2023-02-17T03:17:09;9.90;;;8.37;;
819;SDS011;392;48.838;2.322;2023-02-17T03:19:38;10.37;;;8.93;;
819;SDS011;392;48.838;2.322;2023-02-17T03:22:08;9.57;;;8.57;;
819;SDS011;392;48.838;2.322;2023-02-17T03:24:41;9.80;;;8.73;;
819;SDS011;392;48.838;2.322;2023-02-17T03:27:08;9.40;;;8.30;;
819;SDS011;392;48.838;2.322;2023-02-17T03:29:36;9.30;;;8.30;;
819;SDS011;392;48.838;2.322;2023-02-17T03:32:03;8.70;;;7.80;;
819;SDS011;392;48.838;2.322;2023-02-17T03:34:32;9.40;;;8.43;;
819;SDS011;392;48.838;2.322;2023-02-17T03:37:01;9.80;;;8.80;;
819;SDS011;392;48.838;2.322;2023-02-17T03:39:28;9.10;;;8.20;;
819;SDS011;392;48.838;2.322;2023-02-17T03:41:56;9.40;;;8.40;;
819;SDS011;392;48.838;2.322;2023-02-17T03:44:24;9.83;;;8.90;;
819;SDS011;392;48.838;2.322;2023-02-17T03:46:51;9.50;;;8.20;;
819;SDS011;392;48.838;2.322;2023-02-17T03:49:19;9.47;;;8.30;;
819;SDS011;392;48.838;2.322;2023-02-17T03:51:46;9.30;;;8.17;;
819;SDS011;392;48.838;2.322;2023-02-17T03:54:15;9.20;;;7.90;;
819;SDS011;392;48.838;2.322;2023-02-17T03:56:42;9.87;;;8.00;;
819;SDS011;392;48.838;2.322;2023-02-17T03:59:10;9.23;;;8.30;;
819;SDS011;392;48.838;2.322;2023-02-17T04:01:38;9.13;;;7.87;;
819;SDS011;392;48.838;2.322;2023-02-17T04:04:05;8.73;;;7.83;;
819;SDS011;392;48.838;2.322;2023-02-17T04:06:32;8.77;;;7.53;;
819;SDS011;392;48.838;2.322;2023-02-17T04:09:00;9.43;;;8.43;;
819;SDS011;392;48.838;2.322;2023-02-17T04:11:30;8.30;;;7.40;;
819;SDS011;392;48.838;2.322;2023-02-17T04:13:57;8.70;;;7.83;;
819;SDS011;392;48.838;2.322;2023-02-17T04:16:25;7.97;;;7.17;;
819;SDS011;392;48.838;2.322;2023-02-17T04:18:52;8.57;;;7.43;;
819;SDS011;392;48.838;2.322;2023-02-17T04:21:19;9.20;;;8.00;;
819;SDS011;392;48.838;2.322;2023-02-17T04:23:47;8.40;;;7.50;;
819;SDS011;392;48.838;2.322;2023-02-17T04:26:14;9.03;;;8.03;;
819;SDS011;392;48.838;2.322;2023-02-17T04:28:43;8.77;;;7.90;;
819;SDS011;392;48.838;2.322;2023-02-17T04:31:10;9.30;;;7.83;;
819;SDS011;392;48.838;2.322;2023-02-17T04:33:38;7.27;;;6.50;;
819;SDS011;392;48.838;2.322;2023-02-17T04:36:05;9.13;;;7.47;;
819;SDS011;392;48.838;2.322;2023-02-17T04:38:33;8.77;;;7.10;;
819;SDS011;392;48.838;2.322;2023-02-17T04:41:01;9.00;;;8.10;;
819;SDS011;392;48.838;2.322;2023-02-17T04:43:29;8.70;;;7.17;;
819;SDS011;392;48.838;2.322;2023-02-17T04:45:58;10.20;;;8.83;;
819;SDS011;392;48.838;2.322;2023-02-17T04:48:25;8.70;;;7.90;;
819;SDS011;392;48.838;2.322;2023-02-17T04:50:53;8.90;;;8.00;;
819;SDS011;392;48.838;2.322;2023-02-17T04:53:20;9.57;;;8.57;;
819;SDS011;392;48.838;2.322;2023-02-17T04:55:48;9.77;;;8.47;;
819;SDS011;392;48.838;2.322;2023-02-17T04:58:17;9.03;;;8.13;;
819;SDS011;392;48.838;2.322;2023-02-17T05:00:45;10.03;;;9.03;;
819;SDS011;392;48.838;2.322;2023-02-17T05:03:16;9.87;;;8.87;;
819;SDS011;392;48.838;2.322;2023-02-17T05:05:44;8.93;;;7.67;;
819;SDS011;392;48.838;2.322;2023-02-17T05:08:12;8.77;;;7.93;;
819;SDS011;392;48.838;2.322;2023-02-17T05:10:39;10.20;;;7.90;;
819;SDS011;392;48.838;2.322;2023-02-17T05:13:06;9.00;;;8.10;;
819;SDS011;392;48.838;2.322;2023-02-17T05:15:34;9.80;;;8.60;;
819;SDS011;392;48.838;2.322;2023-02-17T05:18:01;9.20;;;8.03;;
819;SDS011;392;48.838;2.322;2023-02-17T05:20:32;10.10;;;8.67;;
819;SDS011;392;48.838;2.322;2023-02-17T05:22:59;9.47;;;8.53;;
819;SDS011;392;48.838;2.322;2023-02-17T05:25:27;10.80;;;8.63;;
819;SDS011;392;48.838;2.322;2023-02-17T05:27:55;8.67;;;7.70;;
819;SDS011;392;48.838;2.322;2023-02-17T05:30:22;9.50;;;8.13;;
819;SDS011;392;48.838;2.322;2023-02-17T05:32:49;8.63;;;7.23;;
819;SDS011;392;48.838;2.322;2023-02-17T05:35:17;9.57;;;8.57;;
819;SDS011;392;48.838;2.322;2023-02-17T05:37:46;9.93;;;9.00;;
819;SDS011;392;48.838;2.322;2023-02-17T05:40:14;9.53;;;8.73;;
819;SDS011;392;48.838;2.322;2023-02-17T05:42:41;9.73;;;8.83;;
819;SDS011;392;48.838;2.322;2023-02-17T05:45:08;8.97;;;8.17;;
819;SDS011;392;48.838;2.322;2023-02-17T05:47:36;7.97;;;7.20;;
819;SDS011;392;48.838;2.322;2023-02-17T05:50:04;7.63;;;6.83;;
819;SDS011;392;48.838;2.322;2023-02-17T05:52:32;8.03;;;6.90;;
819;SDS011;392;48.838;2.322;2023-02-17T05:55:01;7.90;;;7.20;;
819;SDS011;392;48.838;2.322;2023-02-17T05:57:29;9.73;;;8.73;;
819;SDS011;392;48.838;2.322;2023-02-17T05:59:57;8.93;;;7.20;;
819;SDS011;392;48.838;2.322;2023-02-17T06:02:24;6.80;;;6.20;;
819;SDS011;392;48.838;2.322;2023-02-17T06:04:51;8.40;;;7.70;;
819;SDS011;392;48.838;2.322;2023-02-17T06:07:19;9.10;;;8.30;;
819;SDS011;392;48.838;2.322;2023-02-17T06:09:46;9.90;;;9.00;;
819;SDS011;392;48.838;2.322;2023-02-17T06:12:15;8.90;;;8.07;;
819;SDS011;392;48.838;2.322;2023-02-17T06:14:42;9.30;;;8.43;;
819;SDS011;392;48.838;2.322;2023-02-17T06:17:09;7.87;;;6.90;;
819;SDS011;392;48.838;2.322;2023-02-17T06:19:37;7.70;;;7.00;;
819;SDS011;392;48.838;2.322;2023-02-17T06:22:04;7.00;;;6.30;;
819;SDS011;392;48.838;2.322;2023-02-17T06:24:32;7.97;;;7.10;;
819;SDS011;392;48.838;2.322;2023-02-17T06:27:00;9.37;;;7.77;;
819;SDS011;392;48.838;2.322;2023-02-17T06:29:28;8.37;;;7.20;;
819;SDS011;392;48.838;2.322;2023-02-17T06:31:56;7.83;;;7.03;;
819;SDS011;392;48.838;2.322;2023-02-17T06:34:23;8.50;;;7.67;;
819;SDS011;392;48.838;2.322;2023-02-17T06:36:52;9.10;;;7.03;;
819;SDS011;392;48.838;2.322;2023-02-17T06:39:20;8.63;;;7.07;;
819;SDS011;392;48.838;2.322;2023-02-17T06:41:47;8.97;;;8.17;;
819;SDS011;392;48.838;2.322;2023-02-17T06:44:15;8.70;;;6.33;;
819;SDS011;392;48.838;2.322;2023-02-17T06:46:44;9.47;;;6.57;;
819;SDS011;392;48.838;2.322;2023-02-17T06:49:11;7.47;;;6.33;;
819;SDS011;392;48.838;2.322;2023-02-17T06:51:39;10.53;;;7.97;;
819;SDS011;392;48.838;2.322;2023-02-17T06:54:07;8.30;;;6.90;;
819;SDS011;392;48.838;2.322;2023-02-17T06:56:34;6.90;;;5.90;;
819;SDS011;392;48.838;2.322;2023-02-17T06:59:02;7.87;;;7.20;;
819;SDS011;392;48.838;2.322;2023-02-17T07:01:30;6.33;;;5.73;;
819;SDS011;392;48.838;2.322;2023-02-17T07:03:59;7.50;;;6.70;;
819;SDS011;392;48.838;2.322;2023-02-17T07:06:27;8.57;;;6.10;;
819;SDS011;392;48.838;2.322;2023-02-17T07:08:54;6.50;;;5.73;;
819;SDS011;392;48.838;2.322;2023-02-17T07:11:21;7.50;;;6.63;;
819;SDS011;392;48.838;2.322;2023-02-17T07:13:50;6.50;;;5.90;;
819;SDS011;392;48.838;2.322;2023-02-17T07:16:17;8.43;;;5.47;;
819;SDS011;392;48.838;2.322;2023-02-17T07:18:45;7.30;;;6.50;;
819;SDS011;392;48.838;2.322;2023-02-17T07:21:14;4.97;;;4.53;;
819;SDS011;392;48.838;2.322;2023-02-17T07:23:41;7.23;;;6.37;;
819;SDS011;392;48.838;2.322;2023-02-17T07:26:10;6.43;;;5.77;;
819;SDS011;392;48.838;2.322;2023-02-17T07:28:38;6.33;;;5.13;;
819;SDS011;392;48.838;2.322;2023-02-17T07:31:06;6.43;;;5.93;;
819;SDS011;392;48.838;2.322;2023-02-17T07:33:35;6.43;;;5.63;;
819;SDS011;392;48.838;2.322;2023-02-17T07:36:04;5.60;;;4.90;;
819;SDS011;392;48.838;2.322;2023-02-17T07:38:50;5.17;;;4.67;;
819;SDS011;392;48.838;2.322;2023-02-17T07:41:20;4.67;;;4.27;;
819;SDS011;392;48.838;2.322;2023-02-17T07:43:54;4.40;;;4.00;;
819;SDS011;392;48.838;2.322;2023-02-17T07:46:23;4.47;;;4.07;;
819;SDS011;392;48.838;2.322;2023-02-17T07:48:56;6.20;;;5.60;;
819;SDS011;392;48.838;2.322;2023-02-17T07:51:28;5.10;;;4.50;;
819;SDS011;392;48.838;2.322;2023-02-17T07:53:57;4.80;;;4.30;;
819;SDS011;392;48.838;2.322;2023-02-17T07:56:26;4.37;;;3.97;;
819;SDS011;392;48.838;2.322;2023-02-17T07:58:54;4.80;;;4.20;;
819;SDS011;392;48.838;2.322;2023-02-17T08:01:35;4.90;;;4.40;;
819;SDS011;392;48.838;2.322;2023-02-17T08:04:11;5.57;;;4.73;;
819;SDS011;392;48.838;2.322;2023-02-17T08:06:44;4.50;;;3.97;;
819;SDS011;392;48.838;2.322;2023-02-17T08:09:13;4.03;;;3.73;;
819;SDS011;392;48.838;2.322;2023-02-17T08:11:58;3.67;;;3.30;;
819;SDS011;392;48.838;2.322;2023-02-17T08:14:51;4.30;;;3.63;;
819;SDS011;392;48.838;2.322;2023-02-17T08:17:18;3.90;;;3.50;;
819;SDS011;392;48.838;2.322;2023-02-17T08:19:46;3.90;;;3.43;;
819;SDS011;392;48.838;2.322;2023-02-17T08:22:13;4.13;;;3.60;;
819;SDS011;392;48.838;2.322;2023-02-17T08:24:42;3.57;;;3.27;;
819;SDS011;392;48.838;2.322;2023-02-17T08:27:10;4.40;;;4.10;;
819;SDS011;392;48.838;2.322;2023-02-17T08:29:37;4.60;;;4.20;;
819;SDS011;392;48.838;2.322;2023-02-17T08:32:07;4.10;;;3.70;;
819;SDS011;392;48.838;2.322;2023-02-17T08:34:35;3.90;;;3.60;;
819;SDS011;392;48.838;2.322;2023-02-17T08:37:02;4.37;;;3.97;;
819;SDS011;392;48.838;2.322;2023-02-17T08:39:37;4.80;;;4.40;;
819;SDS011;392;48.838;2.322;2023-02-17T08:42:18;4.10;;;3.70;;
819;SDS011;392;48.838;2.322;2023-02-17T08:44:45;5.40;;;3.60;;
819;SDS011;392;48.838;2.322;2023-02-17T08:47:13;5.20;;;3.50;;
819;SDS011;392;48.838;2.322;2023-02-17T08:49:40;3.97;;;3.67;;
819;SDS011;392;48.838;2.322;2023-02-17T08:52:10;4.40;;;4.10;;
819;SDS011;392;48.838;2.322;2023-02-17T08:54:56;4.00;;;3.20;;
819;SDS011;392;48.838;2.322;2023-02-17T08:57:25;4.07;;;3.77;;
819;SDS011;392;48.838;2.322;2023-02-17T08:59:53;4.43;;;4.10;;
819;SDS011;392;48.838;2.322;2023-02-17T09:02:20;4.80;;;4.40;;
819;SDS011;392;48.838;2.322;2023-02-17T09:05:17;4.03;;;3.67;;
819;SDS011;392;48.838;2.322;2023-02-17T09:07:44;4.50;;;4.20;;
819;SDS011;392;48.838;2.322;2023-02-17T09:10:11;3.87;;;3.60;;
819;SDS011;392;48.838;2.322;2023-02-17T09:12:41;3.63;;;3.30;;
819;SDS011;392;48.838;2.322;2023-02-17T09:15:08;4.07;;;3.67;;
819;SDS011;392;48.838;2.322;2023-02-17T09:17:38;4.40;;;3.43;;
819;SDS011;392;48.838;2.322;2023-02-17T09:20:21;4.07;;;3.67;;
819;SDS011;392;48.838;2.322;2023-02-17T09:22:50;3.20;;;3.00;;
819;SDS011;392;48.838;2.322;2023-02-17T09:25:18;3.57;;;3.27;;
819;SDS011;392;48.838;2.322;2023-02-17T09:27:47;3.73;;;3.43;;
819;SDS011;392;48.838;2.322;2023-02-17T09:30:35;3.50;;;3.20;;
819;SDS011;392;48.838;2.322;2023-02-17T09:33:02;3.77;;;3.47;;
819;SDS011;392;48.838;2.322;2023-02-17T09:35:32;3.20;;;2.90;;
819;SDS011;392;48.838;2.322;2023-02-17T09:37:59;3.87;;;3.57;;
819;SDS011;392;48.838;2.322;2023-02-17T09:40:31;3.50;;;3.30;;
819;SDS011;392;48.838;2.322;2023-02-17T09:43:07;3.07;;;2.73;;
819;SDS011;392;48.838;2.322;2023-02-17T09:45:40;2.67;;;2.47;;
819;SDS011;392;48.838;2.322;2023-02-17T09:48:14;3.50;;;3.20;;
819;SDS011;392;48.838;2.322;2023-02-17T09:50:48;2.67;;;2.47;;
819;SDS011;392;48.838;2.322;2023-02-17T09:53:23;3.07;;;2.80;;
819;SDS011;392;48.838;2.322;2023-02-17T09:56:00;3.57;;;3.27;;
819;SDS011;392;48.838;2.322;2023-02-17T09:58:33;3.13;;;2.80;;
819;SDS011;392;48.838;2.322;2023-02-17T10:01:07;3.50;;;3.23;;
819;SDS011;392;48.838;2.322;2023-02-17T10:03:39;2.50;;;2.30;;
819;SDS011;392;48.838;2.322;2023-02-17T10:06:11;3.17;;;2.97;;
819;SDS011;392;48.838;2.322;2023-02-17T10:08:42;3.23;;;2.87;;
819;SDS011;392;48.838;2.322;2023-02-17T10:11:18;2.50;;;2.30;;
819;SDS011;392;48.838;2.322;2023-02-17T10:13:55;2.20;;;2.10;;
819;SDS011;392;48.838;2.322;2023-02-17T10:16:27;5.10;;;4.60;;
819;SDS011;392;48.838;2.322;2023-02-17T10:19:00;3.03;;;2.83;;
819;SDS011;392;48.838;2.322;2023-02-17T10:21:34;2.00;;;1.90;;
819;SDS011;392;48.838;2.322;2023-02-17T10:24:08;2.40;;;2.00;;
819;SDS011;392;48.838;2.322;2023-02-17T10:26:42;2.23;;;2.13;;
819;SDS011;392;48.838;2.322;2023-02-17T10:29:26;2.33;;;2.23;;
819;SDS011;392;48.838;2.322;2023-02-17T10:32:05;2.70;;;2.60;;
819;SDS011;392;48.838;2.322;2023-02-17T10:34:45;2.63;;;2.53;;
819;SDS011;392;48.838;2.322;2023-02-17T10:37:28;3.30;;;2.40;;
819;SDS011;392;48.838;2.322;2023-02-17T10:40:08;2.80;;;2.60;;
819;SDS011;392;48.838;2.322;2023-02-17T10:42:40;2.13;;;2.03;;
819;SDS011;392;48.838;2.322;2023-02-17T10:45:11;2.83;;;2.63;;
819;SDS011;392;48.838;2.322;2023-02-17T10:47:47;7.23;;;6.53;;
819;SDS011;392;48.838;2.322;2023-02-17T10:50:18;7.73;;;7.03;;
819;SDS011;392;48.838;2.322;2023-02-17T10:52:48;5.97;;;5.40;;
819;SDS011;392;48.838;2.322;2023-02-17T10:55:19;4.70;;;4.30;;
819;SDS011;392;48.838;2.322;2023-02-17T10:57:52;3.57;;;3.27;;
819;SDS011;392;48.838;2.322;2023-02-17T11:00:26;4.80;;;4.30;;
819;SDS011;392;48.838;2.322;2023-02-17T11:02:53;5.67;;;5.17;;
819;SDS011;392;48.838;2.322;2023-02-17T11:05:21;4.13;;;3.83;;
819;SDS011;392;48.838;2.322;2023-02-17T11:07:55;3.57;;;3.30;;
819;SDS011;392;48.838;2.322;2023-02-17T11:10:27;3.67;;;3.37;;
819;SDS011;392;48.838;2.322;2023-02-17T11:12:58;4.07;;;3.30;;
819;SDS011;392;48.838;2.322;2023-02-17T11:15:30;3.30;;;3.10;;
819;SDS011;392;48.838;2.322;2023-02-17T11:18:00;3.40;;;3.17;;
819;SDS011;392;48.838;2.322;2023-02-17T11:20:41;4.80;;;4.40;;
819;SDS011;392;48.838;2.322;2023-02-17T11:23:20;3.33;;;3.13;;
819;SDS011;392;48.838;2.322;2023-02-17T11:26:06;3.23;;;3.03;;
819;SDS011;392;48.838;2.322;2023-02-17T11:28:41;3.60;;;3.30;;
819;SDS011;392;48.838;2.322;2023-02-17T11:31:21;4.17;;;3.30;;
819;SDS011;392;48.838;2.322;2023-02-17T11:33:50;3.67;;;3.47;;
819;SDS011;392;48.838;2.322;2023-02-17T11:36:22;3.17;;;2.90;;
819;SDS011;392;48.838;2.322;2023-02-17T11:38:52;2.93;;;2.77;;
819;SDS011;392;48.838;2.322;2023-02-17T11:41:20;3.80;;;3.50;;
819;SDS011;392;48.838;2.322;2023-02-17T11:43:50;3.20;;;3.00;;
819;SDS011;392;48.838;2.322;2023-02-17T11:46:26;3.07;;;2.87;;
819;SDS011;392;48.838;2.322;2023-02-17T11:49:02;3.23;;;3.00;;
819;SDS011;392;48.838;2.322;2023-02-17T11:52:05;3.43;;;3.23;;
819;SDS011;392;48.838;2.322;2023-02-17T11:54:46;3.63;;;3.33;;
819;SDS011;392;48.838;2.322;2023-02-17T11:57:34;3.00;;;2.80;;
819;SDS011;392;48.838;2.322;2023-02-17T12:00:12;3.23;;;3.03;;
819;SDS011;392;48.838;2.322;2023-02-17T12:06:20;3.30;;;3.10;;
819;SDS011;392;48.838;2.322;2023-02-17T12:09:03;3.73;;;3.43;;
819;SDS011;392;48.838;2.322;2023-02-17T12:11:42;2.80;;;2.70;;
819;SDS011;392;48.838;2.322;2023-02-17T12:14:25;3.13;;;3.00;;
819;SDS011;392;48.838;2.322;2023-02-17T12:17:12;3.60;;;3.40;;
819;SDS011;392;48.838;2.322;2023-02-17T12:19:51;3.30;;;3.10;;
819;SDS011;392;48.838;2.322;2023-02-17T12:22:27;3.20;;;3.00;;
819;SDS011;392;48.838;2.322;2023-02-17T12:25:13;3.27;;;3.07;;
819;SDS011;392;48.838;2.322;2023-02-17T12:28:04;3.20;;;3.00;;
819;SDS011;392;48.838;2.322;2023-02-17T12:30:55;3.20;;;3.07;;
819;SDS011;392;48.838;2.322;2023-02-17T12:33:38;2.83;;;2.73;;
819;SDS011;392;48.838;2.322;2023-02-17T12:36:21;2.77;;;2.67;;
819;SDS011;392;48.838;2.322;2023-02-17T12:38:57;2.90;;;2.70;;
819;SDS011;392;48.838;2.322;2023-02-17T12:41:30;2.50;;;2.40;;
819;SDS011;392;48.838;2.322;2023-02-17T12:44:03;3.00;;;2.80;;
819;SDS011;392;48.838;2.322;2023-02-17T12:46:37;2.87;;;2.77;;
819;SDS011;392;48.838;2.322;2023-02-17T12:49:09;2.93;;;2.60;;
819;SDS011;392;48.838;2.322;2023-02-17T12:51:41;2.30;;;2.20;;
819;SDS011;392;48.838;2.322;2023-02-17T12:54:15;2.90;;;2.70;;
819;SDS011;392;48.838;2.322;2023-02-17T12:56:51;3.57;;;3.10;;
819;SDS011;392;48.838;2.322;2023-02-17T12:59:30;3.50;;;3.33;;
819;SDS011;392;48.838;2.322;2023-02-17T13:01:59;2.60;;;2.50;;
819;SDS011;392;48.838;2.322;2023-02-17T13:04:30;2.47;;;2.37;;
819;SDS011;392;48.838;2.322;2023-02-17T13:07:08;2.77;;;2.67;;
819;SDS011;392;48.838;2.322;2023-02-17T13:09:47;2.90;;;2.70;;
819;SDS011;392;48.838;2.322;2023-02-17T13:12:27;2.87;;;2.77;;
819;SDS011;392;48.838;2.322;2023-02-17T13:15:04;2.93;;;2.73;;
819;SDS011;392;48.838;2.322;2023-02-17T13:17:53;3.40;;;3.20;;
819;SDS011;392;48.838;2.322;2023-02-17T13:20:27;3.30;;;3.10;;
819;SDS011;392;48.838;2.322;2023-02-17T13:23:29;2.70;;;2.50;;
819;SDS011;392;48.838;2.322;2023-02-17T13:26:15;3.10;;;2.90;;
819;SDS011;392;48.838;2.322;2023-02-17T13:29:15;2.70;;;2.50;;
819;SDS011;392;48.838;2.322;2023-02-17T13:32:02;2.80;;;2.60;;
819;SDS011;392;48.838;2.322;2023-02-17T13:34:32;2.90;;;2.80;;
819;SDS011;392;48.838;2.322;2023-02-17T13:37:12;2.17;;;2.07;;
819;SDS011;392;48.838;2.322;2023-02-17T13:39:45;2.77;;;2.67;;
819;SDS011;392;48.838;2.322;2023-02-17T13:45:20;2.40;;;2.30;;
819;SDS011;392;48.838;2.322;2023-02-17T13:47:52;2.20;;;2.20;;
819;SDS011;392;48.838;2.322;2023-02-17T13:50:27;4.80;;;2.57;;
819;SDS011;392;48.838;2.322;2023-02-17T13:52:59;2.50;;;2.30;;
819;SDS011;392;48.838;2.322;2023-02-17T13:55:29;2.73;;;2.70;;
819;SDS011;392;48.838;2.322;2023-02-17T13:57:56;2.17;;;2.07;;
819;SDS011;392;48.838;2.322;2023-02-17T14:00:25;2.73;;;2.20;;
819;SDS011;392;48.838;2.322;2023-02-17T14:02:55;3.20;;;3.00;;
819;SDS011;392;48.838;2.322;2023-02-17T14:05:25;2.57;;;2.37;;
819;SDS011;392;48.838;2.322;2023-02-17T14:08:03;2.80;;;2.60;;
819;SDS011;392;48.838;2.322;2023-02-17T14:10:38;2.50;;;2.40;;
819;SDS011;392;48.838;2.322;2023-02-17T14:13:07;2.47;;;2.37;;
819;SDS011;392;48.838;2.322;2023-02-17T14:15:36;2.70;;;2.50;;
819;SDS011;392;48.838;2.322;2023-02-17T14:18:11;2.27;;;2.17;;
819;SDS011;392;48.838;2.322;2023-02-17T14:20:38;2.60;;;2.40;;
819;SDS011;392;48.838;2.322;2023-02-17T14:23:07;2.17;;;2.07;;
819;SDS011;392;48.838;2.322;2023-02-17T14:25:39;2.40;;;2.30;;
819;SDS011;392;48.838;2.322;2023-02-17T14:28:17;2.17;;;2.07;;
819;SDS011;392;48.838;2.322;2023-02-17T14:30:46;2.60;;;2.50;;
819;SDS011;392;48.838;2.322;2023-02-17T14:33:18;2.30;;;2.20;;
819;SDS011;392;48.838;2.322;2023-02-17T14:35:49;2.00;;;1.90;;
819;SDS011;392;48.838;2.322;2023-02-17T14:38:20;2.30;;;2.20;;
819;SDS011;392;48.838;2.322;2023-02-17T14:40:52;2.30;;;2.20;;
819;SDS011;392;48.838;2.322;2023-02-17T14:43:20;2.60;;;2.50;;
819;SDS011;392;48.838;2.322;2023-02-17T14:45:48;2.20;;;2.10;;
819;SDS011;392;48.838;2.322;2023-02-17T14:48:16;1.83;;;1.73;;
819;SDS011;392;48.838;2.322;2023-02-17T14:50:44;2.00;;;1.90;;
819;SDS011;392;48.838;2.322;2023-02-17T14:53:13;1.70;;;1.70;;
819;SDS011;392;48.838;2.322;2023-02-17T14:55:49;2.00;;;1.90;;
819;SDS011;392;48.838;2.322;2023-02-17T14:58:22;1.80;;;1.80;;
819;SDS011;392;48.838;2.322;2023-02-17T15:00:51;2.00;;;1.90;;
819;SDS011;392;48.838;2.322;2023-02-17T15:03:19;1.70;;;1.60;;
819;SDS011;392;48.838;2.322;2023-02-17T15:05:46;2.30;;;2.20;;
819;SDS011;392;48.838;2.322;2023-02-17T15:08:15;2.20;;;2.10;;
819;SDS011;392;48.838;2.322;2023-02-17T15:10:46;1.67;;;1.57;;
819;SDS011;392;48.838;2.322;2023-02-17T15:13:16;2.03;;;1.93;;
819;SDS011;392;48.838;2.322;2023-02-17T15:15:46;1.90;;;1.80;;
819;SDS011;392;48.838;2.322;2023-02-17T15:18:14;1.90;;;1.80;;
819;SDS011;392;48.838;2.322;2023-02-17T15:20:44;2.13;;;2.03;;
819;SDS011;392;48.838;2.322;2023-02-17T15:23:15;2.20;;;2.10;;
819;SDS011;392;48.838;2.322;2023-02-17T15:25:45;2.47;;;2.37;;
819;SDS011;392;48.838;2.322;2023-02-17T15:28:14;1.70;;;1.70;;
819;SDS011;392;48.838;2.322;2023-02-17T15:30:45;1.63;;;1.63;;
819;SDS011;392;48.838;2.322;2023-02-17T15:33:17;2.20;;;2.10;;
819;SDS011;392;48.838;2.322;2023-02-17T15:35:46;2.17;;;2.07;;
819;SDS011;392;48.838;2.322;2023-02-17T15:38:17;2.50;;;2.30;;
819;SDS011;392;48.838;2.322;2023-02-17T15:40:45;2.00;;;1.90;;
819;SDS011;392;48.838;2.322;2023-02-17T15:43:14;2.03;;;1.93;;
819;SDS011;392;48.838;2.322;2023-02-17T15:45:46;1.67;;;1.60;;
819;SDS011;392;48.838;2.322;2023-02-17T15:48:16;2.00;;;1.90;;
819;SDS011;392;48.838;2.322;2023-02-17T15:50:50;2.20;;;2.10;;
819;SDS011;392;48.838;2.322;2023-02-17T15:53:18;4.70;;;1.90;;
819;SDS011;392;48.838;2.322;2023-02-17T15:55:45;2.97;;;2.50;;
819;SDS011;392;48.838;2.322;2023-02-17T15:58:14;2.50;;;2.30;;
819;SDS011;392;48.838;2.322;2023-02-17T16:00:46;2.70;;;2.50;;
819;SDS011;392;48.838;2.322;2023-02-17T16:03:15;4.73;;;2.50;;
819;SDS011;392;48.838;2.322;2023-02-17T16:05:43;2.60;;;2.40;;
819;SDS011;392;48.838;2.322;2023-02-17T16:08:10;2.07;;;1.97;;
819;SDS011;392;48.838;2.322;2023-02-17T16:10:38;1.87;;;1.77;;
819;SDS011;392;48.838;2.322;2023-02-17T16:13:08;2.40;;;2.30;;
819;SDS011;392;48.838;2.322;2023-02-17T16:15:40;2.47;;;2.37;;
819;SDS011;392;48.838;2.322;2023-02-17T16:18:09;3.03;;;2.77;;
819;SDS011;392;48.838;2.322;2023-02-17T16:20:43;3.00;;;2.87;;
819;SDS011;392;48.838;2.322;2023-02-17T16:23:11;4.70;;;4.40;;
819;SDS011;392;48.838;2.322;2023-02-17T16:25:38;2.90;;;2.67;;